Time;durP1;ratioP1;P1;durP2;ratioP2;P2;SDS_P1;SDS_P2;PMS_P1;PMS_P2;Temp;Humidity;BMP_temperature;BMP_pressure;BME280_temperature;BME280_humidity;BME280_pressure;Samples;Min_cycle;Max_cycle;Signal;HPM_P1;HPM_P2
2021/07/01 00:02:04;;;;;;;1.02;1.00;;;;;;;19.85;100.00;96154.34;5030112;28;20482;-62
2021/07/01 00:04:33;;;;;;;2.03;1.10;;;;;;;19.68;100.00;96156.69;5037764;28;20527;-61
2021/07/01 00:07:01;;;;;;;1.70;1.10;;;;;;;19.91;100.00;96158.88;5043176;28;20550;-63
2021/07/01 00:09:31;;;;;;;1.23;1.10;;;;;;;18.96;100.00;96176.22;5039813;28;20068;-62
2021/07/01 00:12:00;;;;;;;1.38;1.10;;;;;;;19.19;100.00;96167.78;5039877;28;20567;-63
2021/07/01 00:14:28;;;;;;;1.23;1.13;;;;;;;19.52;100.00;96167.78;5042167;28;20073;-63
2021/07/01 00:16:57;;;;;;;1.05;1.02;;;;;;;19.47;100.00;96161.41;5040371;28;20127;-62
2021/07/01 00:19:26;;;;;;;3.22;1.20;;;;;;;18.33;100.00;96160.41;5014572;28;20096;-62
2021/07/01 00:21:54;;;;;;;1.25;1.13;;;;;;;18.46;100.00;96167.66;5017930;28;20077;-62
2021/07/01 00:24:23;;;;;;;1.65;1.10;;;;;;;19.11;100.00;96166.16;5020223;28;20069;-62
2021/07/01 00:26:52;;;;;;;1.10;1.00;;;;;;;18.84;100.00;96167.97;5023159;28;20131;-62
2021/07/01 00:29:21;;;;;;;1.20;1.10;;;;;;;19.67;100.00;96160.38;5028405;28;20073;-63
2021/07/01 00:31:49;;;;;;;1.17;1.08;;;;;;;19.33;100.00;96169.44;5036609;28;20491;-61
2021/07/01 00:34:17;;;;;;;2.30;1.13;;;;;;;19.49;100.00;96165.50;5029683;28;20081;-62
2021/07/01 00:36:46;;;;;;;1.10;1.10;;;;;;;19.19;100.00;96176.63;5024833;28;20466;-62
2021/07/01 00:39:14;;;;;;;1.25;1.10;;;;;;;19.54;100.00;96168.38;5034381;28;20196;-62
2021/07/01 00:41:42;;;;;;;1.20;1.10;;;;;;;19.30;100.00;96169.00;5033914;28;20076;-63
2021/07/01 00:44:12;;;;;;;1.55;1.30;;;;;;;19.25;100.00;96180.34;5025879;28;20069;-62
2021/07/01 00:46:40;;;;;;;2.40;1.20;;;;;;;19.00;100.00;96168.63;5037864;28;20080;-62
2021/07/01 00:49:09;;;;;;;1.58;1.20;;;;;;;19.42;100.00;96175.41;5025669;28;20538;-63
2021/07/01 00:51:37;;;;;;;1.10;1.10;;;;;;;19.38;100.00;96160.81;5037184;28;20063;-62
2021/07/01 00:54:06;;;;;;;1.40;1.30;;;;;;;19.11;100.00;96174.16;5037858;28;20056;-63
2021/07/01 00:56:37;;;;;;;1.10;1.10;;;;;;;18.81;100.00;96168.38;5029392;28;20057;-62
2021/07/01 00:59:07;;;;;;;1.05;1.05;;;;;;;18.84;100.00;96172.50;5014551;28;20076;-62
2021/07/01 01:01:37;;;;;;;2.03;1.40;;;;;;;19.32;100.00;96172.31;5027709;28;20096;-63
2021/07/01 01:04:05;;;;;;;1.45;1.10;;;;;;;19.36;100.00;96163.66;5039522;28;20368;-62
2021/07/01 01:06:34;;;;;;;1.27;1.17;;;;;;;18.93;100.00;96165.94;5035795;28;20071;-62
2021/07/01 01:09:06;;;;;;;1.30;1.20;;;;;;;19.44;100.00;96160.78;5034229;28;20454;-61
2021/07/01 01:11:34;;;;;;;1.38;1.27;;;;;;;19.52;100.00;96161.63;5016478;28;20073;-63
2021/07/01 01:14:02;;;;;;;1.50;1.40;;;;;;;19.88;100.00;96163.81;5025794;28;20079;-62
2021/07/01 01:16:31;;;;;;;4.82;1.30;;;;;;;19.63;100.00;96159.13;5034042;28;20088;-60
2021/07/01 01:19:01;;;;;;;2.65;1.30;;;;;;;18.79;100.00;96172.28;5014710;28;20076;-63
2021/07/01 01:21:31;;;;;;;1.57;1.40;;;;;;;19.23;100.00;96176.22;5031311;28;20072;-62
2021/07/01 01:24:03;;;;;;;1.48;1.30;;;;;;;18.99;100.00;96175.78;5038112;28;20526;-63
2021/07/01 01:26:31;;;;;;;3.17;1.50;;;;;;;19.00;100.00;96177.47;5036837;28;20041;-62
2021/07/01 01:29:00;;;;;;;2.45;1.40;;;;;;;19.27;100.00;96177.44;5032903;28;20061;-62
2021/07/01 01:31:29;;;;;;;1.88;1.30;;;;;;;19.50;100.00;96166.34;5022915;28;20066;-62
2021/07/01 01:33:58;;;;;;;1.50;1.40;;;;;;;19.00;100.00;96169.44;5020207;28;20076;-62
2021/07/01 01:36:26;;;;;;;1.83;1.50;;;;;;;18.84;100.00;96173.31;5022901;28;20081;-62
2021/07/01 01:38:54;;;;;;;2.08;1.35;;;;;;;18.93;100.00;96165.94;5030314;28;20554;-63
2021/07/01 01:41:24;;;;;;;1.50;1.40;;;;;;;19.04;100.00;96172.53;5039044;28;20080;-61
2021/07/01 01:43:53;;;;;;;1.50;1.35;;;;;;;18.91;100.00;96174.16;5038786;28;20081;-63
2021/07/01 01:46:22;;;;;;;1.60;1.40;;;;;;;18.42;100.00;96169.09;5040217;28;20069;-62
2021/07/01 01:48:51;;;;;;;1.70;1.30;;;;;;;18.50;100.00;96171.56;5038090;28;20065;-61
2021/07/01 01:51:20;;;;;;;1.70;1.60;;;;;;;18.31;100.00;96167.81;5042152;28;20068;-63
2021/07/01 01:53:48;;;;;;;1.90;1.52;;;;;;;18.45;100.00;96169.50;5035326;28;20072;-62
2021/07/01 01:56:19;;;;;;;1.73;1.52;;;;;;;17.94;100.00;96158.44;5032629;28;20072;-63
2021/07/01 01:58:49;;;;;;;2.03;1.70;;;;;;;18.57;100.00;96177.75;5015218;28;20073;-63
2021/07/01 02:01:17;;;;;;;1.58;1.48;;;;;;;18.43;100.00;96174.22;5038273;28;20518;-62
2021/07/01 02:03:46;;;;;;;2.30;1.55;;;;;;;18.33;100.00;96178.28;5019531;28;20549;-62
2021/07/01 02:06:14;;;;;;;2.50;1.40;;;;;;;17.93;100.00;96170.94;5033552;28;20076;-63
2021/07/01 02:08:42;;;;;;;1.92;1.63;;;;;;;18.76;100.00;96175.38;5029235;28;20567;-62
2021/07/01 02:11:11;;;;;;;2.63;1.60;;;;;;;18.61;100.00;96175.50;5019960;28;20096;-62
2021/07/01 02:13:39;;;;;;;1.83;1.30;;;;;;;18.47;100.00;96186.13;5014924;28;20085;-61
2021/07/01 02:16:10;;;;;;;2.05;1.50;;;;;;;19.39;100.00;96168.59;5025785;28;20050;-61
2021/07/01 02:18:38;;;;;;;3.42;1.52;;;;;;;19.37;100.00;96180.53;5037744;28;20071;-62
2021/07/01 02:21:07;;;;;;;1.77;1.50;;;;;;;18.30;100.00;96181.34;5032713;28;20068;-62
2021/07/01 02:23:35;;;;;;;6.72;1.80;;;;;;;18.34;100.00;96171.91;5037456;28;20058;-62
2021/07/01 02:26:04;;;;;;;2.75;1.30;;;;;;;18.02;100.00;96168.94;5030733;28;20078;-62
2021/07/01 02:28:32;;;;;;;1.60;1.50;;;;;;;18.13;100.00;96171.03;5029157;28;20077;-62
2021/07/01 02:31:00;;;;;;;1.77;1.67;;;;;;;18.21;100.00;96176.19;5016648;28;20118;-62
2021/07/01 02:33:30;;;;;;;2.95;1.60;;;;;;;18.80;100.00;96176.59;5035343;28;20076;-62
2021/07/01 02:35:58;;;;;;;2.10;1.80;;;;;;;19.45;100.00;96177.66;5036165;28;20456;-61
2021/07/01 02:38:27;;;;;;;1.85;1.40;;;;;;;18.43;100.00;96176.88;5019963;28;20080;-62
2021/07/01 02:40:55;;;;;;;2.25;1.70;;;;;;;18.53;100.00;96179.19;5017713;28;20525;-62
2021/07/01 02:43:24;;;;;;;3.90;1.60;;;;;;;18.68;100.00;96179.00;5023104;28;20084;-63
2021/07/01 02:45:52;;;;;;;1.90;1.70;;;;;;;19.33;100.00;96180.13;5035739;28;20075;-63
2021/07/01 02:48:20;;;;;;;2.10;1.60;;;;;;;18.65;100.00;96179.41;5038748;28;20065;-63
2021/07/01 02:50:50;;;;;;;2.28;1.70;;;;;;;18.83;100.00;96187.72;5036745;28;20531;-62
2021/07/01 02:53:18;;;;;;;2.13;1.60;;;;;;;18.21;100.00;96186.88;5036767;28;20095;-62
2021/07/01 02:55:47;;;;;;;1.73;1.63;;;;;;;18.68;100.00;96187.00;5038736;28;20113;-62
2021/07/01 02:58:15;;;;;;;1.95;1.55;;;;;;;18.54;100.00;96191.50;5032110;28;20081;-62
2021/07/01 03:00:44;;;;;;;1.92;1.50;;;;;;;18.37;100.00;96184.88;5018254;28;20076;-62
2021/07/01 03:03:12;;;;;;;1.70;1.55;;;;;;;19.36;100.00;96195.75;5019341;28;20040;-61
2021/07/01 03:05:40;;;;;;;1.70;1.52;;;;;;;19.48;100.00;96185.28;5014501;28;20062;-60
2021/07/01 03:08:10;;;;;;;2.40;1.50;;;;;;;19.56;100.00;96186.91;5022680;28;20076;-62
2021/07/01 03:10:39;;;;;;;2.13;1.70;;;;;;;19.31;100.00;96197.41;5042804;28;20079;-60
2021/07/01 03:13:07;;;;;;;2.05;1.50;;;;;;;19.56;100.00;96185.03;5035919;28;20511;-62
2021/07/01 03:15:36;;;;;;;2.00;1.70;;;;;;;20.02;100.00;96186.00;5019637;28;20080;-62
2021/07/01 03:18:04;;;;;;;2.90;1.75;;;;;;;19.48;100.00;96193.31;5031863;28;20464;-63
2021/07/01 03:20:35;;;;;;;1.95;1.85;;;;;;;18.79;100.00;96197.16;5029689;28;20073;-63
2021/07/01 03:23:03;;;;;;;1.85;1.50;;;;;;;19.10;100.00;96193.91;5010981;28;20072;-62
2021/07/01 03:25:33;;;;;;;2.80;1.70;;;;;;;19.60;100.00;96182.78;5034184;28;20081;-63
2021/07/01 03:28:01;;;;;;;1.60;1.50;;;;;;;19.58;100.00;96185.69;5035867;28;20075;-62
2021/07/01 03:30:30;;;;;;;1.50;1.40;;;;;;;19.01;100.00;96188.97;5038788;28;20072;-61
2021/07/01 03:32:59;;;;;;;2.33;1.60;;;;;;;19.75;100.00;96188.78;5038971;28;20535;-63
2021/07/01 03:35:27;;;;;;;2.13;1.65;;;;;;;19.47;100.00;96193.50;5030333;28;20069;-63
2021/07/01 03:37:56;;;;;;;2.33;1.67;;;;;;;19.36;100.00;96187.72;5015688;28;20500;-62
2021/07/01 03:40:24;;;;;;;2.10;1.60;;;;;;;19.89;100.00;96190.38;5037800;28;20077;-63
2021/07/01 03:42:54;;;;;;;1.70;1.60;;;;;;;19.37;100.00;96192.06;5039573;28;20460;-62
2021/07/01 03:45:22;;;;;;;1.87;1.60;;;;;;;19.52;100.00;96183.81;5035249;28;20069;-62
2021/07/01 03:47:51;;;;;;;1.75;1.65;;;;;;;20.03;100.00;96191.16;5034487;28;20065;-63
2021/07/01 03:50:19;;;;;;;2.50;1.67;;;;;;;19.11;100.00;96192.06;5032390;28;20084;-63
2021/07/01 03:52:47;;;;;;;2.80;1.70;;;;;;;19.41;100.00;96195.16;5015636;28;20116;-63
2021/07/01 03:55:18;;;;;;;1.90;1.70;;;;;;;19.50;100.00;96185.06;5019390;28;20085;-65
2021/07/01 03:57:46;;;;;;;;;;;;;;;19.86;100.00;96181.94;5019509;28;20107;-61
2021/07/01 04:00:16;;;;;;;1.75;1.65;;;;;;;19.19;100.00;96199.88;5019513;28;19972;-65
2021/07/01 04:02:45;;;;;;;1.75;1.65;;;;;;;18.86;100.00;96192.66;5014639;28;20473;-65
2021/07/01 04:05:13;;;;;;;2.38;1.70;;;;;;;19.80;100.00;96191.63;5017123;28;20072;-63
2021/07/01 04:07:42;;;;;;;2.20;2.00;;;;;;;19.22;100.00;96196.78;5035446;28;20081;-64
2021/07/01 04:10:15;;;;;;;2.15;1.95;;;;;;;20.04;100.00;96195.47;5020977;28;20088;-64
2021/07/01 04:12:43;;;;;;;2.50;2.28;;;;;;;19.06;100.00;96207.88;5019232;28;20073;-64
2021/07/01 04:15:13;;;;;;;2.58;2.20;;;;;;;19.47;100.00;96209.53;5023724;28;20080;-65
2021/07/01 04:18:08;;;;;;;2.30;2.10;;;;;;;18.85;100.00;96215.03;5024424;28;20074;-65
2021/07/01 04:20:36;;;;;;;2.63;2.20;;;;;;;18.96;100.00;96209.13;5026829;28;20066;-65
2021/07/01 04:23:05;;;;;;;2.58;2.38;;;;;;;18.95;100.00;96218.13;5023960;28;20069;-67
2021/07/01 04:25:34;;;;;;;2.10;1.90;;;;;;;19.13;100.00;96203.34;5032538;28;20081;-66
2021/07/01 04:28:03;;;;;;;2.70;2.20;;;;;;;19.59;100.00;96206.03;5035657;28;20037;-65
2021/07/01 04:30:32;;;;;;;2.08;1.90;;;;;;;18.26;100.00;96204.97;5010178;28;20065;-66
2021/07/01 04:33:01;;;;;;;2.97;2.40;;;;;;;19.68;100.00;96212.00;5025509;28;20065;-64
2021/07/01 04:35:30;;;;;;;2.83;2.23;;;;;;;19.28;100.00;96209.34;5030820;28;20084;-66
2021/07/01 04:37:58;;;;;;;3.00;2.45;;;;;;;19.30;100.00;96212.63;5021526;28;20077;-64
2021/07/01 04:40:26;;;;;;;2.20;2.00;;;;;;;18.73;100.00;96206.78;5013146;28;20077;-65
2021/07/01 04:42:55;;;;;;;3.58;2.30;;;;;;;19.51;100.00;96216.97;5017992;28;20054;-65
2021/07/01 04:45:23;;;;;;;2.55;2.10;;;;;;;19.26;100.00;96214.06;5033382;28;20466;-64
2021/07/01 04:47:52;;;;;;;2.35;1.98;;;;;;;19.25;100.00;96211.59;5041850;28;20455;-64
2021/07/01 04:50:21;;;;;;;2.33;2.00;;;;;;;19.72;100.00;96207.06;5043584;28;20068;-65
2021/07/01 04:52:50;;;;;;;3.50;2.03;;;;;;;19.27;100.00;96210.38;5034288;28;20077;-64
2021/07/01 04:55:18;;;;;;;2.17;1.98;;;;;;;19.55;100.00;96212.84;5038760;28;20081;-65
2021/07/01 04:57:46;;;;;;;2.47;1.83;;;;;;;19.26;100.00;96213.25;5023325;28;20061;-64
2021/07/01 05:00:15;;;;;;;4.22;2.20;;;;;;;19.71;100.00;96210.78;5030351;28;20069;-65
2021/07/01 05:02:43;;;;;;;3.58;2.10;;;;;;;19.51;100.00;96222.31;5040254;28;20069;-64
2021/07/01 05:05:12;;;;;;;2.47;2.00;;;;;;;20.30;100.00;96207.13;5040867;28;20535;-65
2021/07/01 05:07:45;;;;;;;2.25;1.83;;;;;;;19.71;100.00;96221.47;5038049;28;20103;-64
2021/07/01 05:10:15;;;;;;;2.45;2.10;;;;;;;19.49;100.00;96228.88;5037530;28;20088;-65
2021/07/01 05:12:43;;;;;;;2.88;2.22;;;;;;;19.91;100.00;96214.25;5025253;28;20065;-66
2021/07/01 05:15:12;;;;;;;2.40;2.20;;;;;;;19.65;100.00;96220.47;5022464;28;20069;-67
2021/07/01 05:17:41;;;;;;;3.17;2.42;;;;;;;19.95;100.00;96223.50;5022935;28;20065;-62
2021/07/01 05:20:10;;;;;;;3.05;1.95;;;;;;;19.63;100.00;96220.66;5036957;28;20106;-66
2021/07/01 05:22:38;;;;;;;5.67;2.10;;;;;;;19.43;100.00;96225.16;5041268;28;20085;-64
2021/07/01 05:25:09;;;;;;;2.13;1.88;;;;;;;20.27;100.00;96215.59;5015711;28;20094;-64
2021/07/01 05:27:38;;;;;;;2.85;2.00;;;;;;;19.63;100.00;96228.69;5033741;28;20077;-65
2021/07/01 05:30:07;;;;;;;4.40;2.20;;;;;;;20.82;100.00;96221.38;5026998;28;20065;-65
2021/07/01 05:32:35;;;;;;;2.38;2.17;;;;;;;20.09;100.00;96221.59;5016391;28;20057;-65
2021/07/01 05:35:04;;;;;;;2.58;1.90;;;;;;;20.64;100.00;96227.41;5016345;28;20504;-66
2021/07/01 05:37:32;;;;;;;2.22;2.03;;;;;;;19.90;100.00;96228.66;5034245;28;20156;-65
2021/07/01 05:40:01;;;;;;;2.20;2.00;;;;;;;20.80;100.00;96226.09;5037689;28;20083;-65
2021/07/01 05:42:31;;;;;;;3.88;2.67;;;;;;;20.20;100.00;96229.00;5019285;28;20053;-66
2021/07/01 05:45:03;;;;;;;2.47;2.10;;;;;;;19.53;100.00;96232.78;5019267;28;20037;-66
2021/07/01 05:47:33;;;;;;;2.75;2.30;;;;;;;20.49;100.00;96226.84;5011537;28;20062;-65
2021/07/01 05:50:03;;;;;;;2.53;2.33;;;;;;;19.75;100.00;96233.41;5027656;28;20061;-65
2021/07/01 05:52:34;;;;;;;3.08;2.42;;;;;;;20.24;100.00;96232.91;5039014;28;20096;-65
2021/07/01 05:55:02;;;;;;;2.65;2.40;;;;;;;20.13;100.00;96236.22;5021911;28;21323;-61
2021/07/01 05:57:32;;;;;;;4.15;3.00;;;;;;;20.05;100.00;96236.44;5016612;28;20736;-64
2021/07/01 06:00:01;;;;;;;;;;;;;;;19.83;100.00;96239.38;5029558;28;20620;-63
2021/07/01 06:02:29;;;;;;;3.35;2.88;;;;;;;20.04;100.00;96238.31;5027097;28;19975;-62
2021/07/01 06:04:58;;;;;;;4.38;3.00;;;;;;;19.64;100.00;96246.38;5014826;28;20084;-61
2021/07/01 06:07:27;;;;;;;6.03;3.10;;;;;;;19.60;100.00;96239.78;5019731;28;20084;-65
2021/07/01 06:09:58;;;;;;;4.85;3.00;;;;;;;20.13;100.00;96245.09;5022307;28;20085;-64
2021/07/01 06:12:30;;;;;;;5.45;3.08;;;;;;;19.83;100.00;96238.56;5032651;28;20050;-63
2021/07/01 06:15:03;;;;;;;4.38;2.90;;;;;;;19.66;100.00;96243.53;5038378;28;20069;-63
2021/07/01 06:17:33;;;;;;;4.40;3.30;;;;;;;20.26;100.00;96241.53;5035938;28;20088;-59
2021/07/01 06:20:03;;;;;;;;;;;;;;;19.68;100.00;96249.47;5022869;28;20073;-61
2021/07/01 06:22:32;;;;;;;4.03;2.47;;;;;;;19.98;100.00;96243.69;5026336;28;19960;-61
2021/07/01 06:25:01;;;;;;;3.88;2.95;;;;;;;19.99;100.00;96251.47;5021550;28;20065;-62
2021/07/01 06:27:34;;;;;;;5.60;2.78;;;;;;;20.44;100.00;96245.41;5030975;28;20068;-63
2021/07/01 06:30:09;;;;;;;3.05;2.60;;;;;;;21.17;100.00;96247.75;5023986;28;20075;-61
2021/07/01 06:32:44;;;;;;;2.67;2.47;;;;;;;21.07;100.00;96253.59;5020892;28;20527;-60
2021/07/01 06:35:13;;;;;;;2.80;2.47;;;;;;;21.08;100.00;96248.00;5033400;28;20096;-62
2021/07/01 06:37:42;;;;;;;2.70;2.30;;;;;;;21.46;100.00;96252.50;5030379;28;20080;-62
2021/07/01 06:40:12;;;;;;;2.72;2.50;;;;;;;20.75;100.00;96255.38;5034858;28;20080;-61
2021/07/01 06:42:44;;;;;;;5.25;2.38;;;;;;;20.08;100.00;96258.28;5020514;28;20069;-62
2021/07/01 06:45:15;;;;;;;2.72;2.45;;;;;;;22.07;100.00;96259.00;5026520;28;20522;-59
2021/07/01 06:47:47;;;;;;;4.35;2.47;;;;;;;20.86;100.00;96263.59;5034645;28;20092;-62
2021/07/01 06:50:17;;;;;;;3.30;2.38;;;;;;;21.51;100.00;96259.94;5036761;28;20073;-61
2021/07/01 06:52:46;;;;;;;2.63;2.28;;;;;;;20.42;100.00;96267.03;5033155;28;20075;-56
2021/07/01 06:55:15;;;;;;;2.63;2.28;;;;;;;20.19;100.00;96262.16;5022921;28;20479;-59
2021/07/01 06:57:44;;;;;;;2.97;2.20;;;;;;;20.53;100.00;96266.41;5023851;28;20061;-63
2021/07/01 07:00:16;;;;;;;3.53;2.42;;;;;;;20.23;100.00;96268.72;5015273;28;20069;-60
2021/07/01 07:02:45;;;;;;;4.05;2.70;;;;;;;20.27;100.00;96269.97;5016988;28;20070;-62
2021/07/01 07:05:15;;;;;;;3.30;2.10;;;;;;;19.76;100.00;96281.38;5016407;28;20076;-60
2021/07/01 07:07:44;;;;;;;3.50;2.60;;;;;;;20.42;100.00;96283.13;5019758;28;20498;-60
2021/07/01 07:10:16;;;;;;;2.83;2.23;;;;;;;19.78;100.00;96284.66;5038083;28;20095;-60
2021/07/01 07:12:48;;;;;;;3.33;2.78;;;;;;;21.74;100.00;96275.41;5032957;28;20076;-62
2021/07/01 07:15:23;;;;;;;2.45;2.25;;;;;;;21.03;100.00;96276.50;5032058;28;20511;-62
2021/07/01 07:17:54;;;;;;;2.88;2.40;;;;;;;20.12;100.00;96272.88;5022930;28;20503;-61
2021/07/01 07:20:23;;;;;;;2.40;2.20;;;;;;;20.18;100.00;96281.13;5019437;28;20474;-61
2021/07/01 07:22:52;;;;;;;2.30;2.10;;;;;;;20.08;100.00;96285.03;5028844;28;20999;-62
2021/07/01 07:25:21;;;;;;;2.70;2.28;;;;;;;20.48;100.00;96290.31;5042970;28;20081;-61
2021/07/01 07:27:55;;;;;;;3.00;2.22;;;;;;;20.11;100.00;96281.94;5034158;28;20065;-62
2021/07/01 07:30:27;;;;;;;2.70;2.38;;;;;;;19.71;100.00;96281.16;5023009;28;20058;-61
2021/07/01 07:32:56;;;;;;;4.93;2.63;;;;;;;20.50;100.00;96288.25;5030623;28;20068;-61
2021/07/01 07:35:24;;;;;;;3.75;2.33;;;;;;;20.94;100.00;96285.81;5042462;28;20080;-61
2021/07/01 07:37:53;;;;;;;3.78;2.60;;;;;;;20.42;100.00;96283.13;5027603;28;20045;-61
2021/07/01 07:40:21;;;;;;;4.38;2.63;;;;;;;21.46;100.00;96283.88;5026526;28;20512;-60
2021/07/01 07:42:49;;;;;;;3.28;2.60;;;;;;;21.56;100.00;96278.84;5035107;28;20061;-58
2021/07/01 07:45:18;;;;;;;2.80;2.50;;;;;;;20.66;100.00;96286.97;5036590;28;20072;-61
2021/07/01 07:47:48;;;;;;;3.35;2.50;;;;;;;20.22;100.00;96287.69;5035890;28;20068;-59
2021/07/01 07:50:19;;;;;;;2.35;2.15;;;;;;;19.80;100.00;96290.63;5032420;28;20068;-61
2021/07/01 07:52:50;;;;;;;4.78;2.78;;;;;;;19.93;100.00;96297.84;5017822;28;20107;-60
2021/07/01 07:55:21;;;;;;;2.83;2.40;;;;;;;19.90;100.00;96298.25;5027320;28;20080;-61
2021/07/01 07:57:52;;;;;;;2.50;2.30;;;;;;;20.05;100.00;96296.16;5032755;28;20479;-61
2021/07/01 08:00:21;;;;;;;3.10;2.70;;;;;;;20.41;100.00;96294.06;5022905;28;20069;-60
2021/07/01 08:02:52;;;;;;;3.10;2.47;;;;;;;20.21;100.00;96288.75;5022765;28;20139;-61
2021/07/01 08:05:22;;;;;;;2.92;2.70;;;;;;;20.96;100.00;96295.31;5030420;28;20068;-58
2021/07/01 08:07:52;;;;;;;4.25;2.90;;;;;;;20.79;100.00;96292.28;5013670;28;20478;-61
2021/07/01 08:10:25;;;;;;;3.10;2.80;;;;;;;20.73;100.00;96289.63;5035911;28;20084;-59
2021/07/01 08:12:57;;;;;;;3.72;2.95;;;;;;;20.41;100.00;96284.16;5033287;28;20076;-62
2021/07/01 08:15:26;;;;;;;3.25;2.88;;;;;;;21.33;100.00;96282.94;5033120;28;20076;-60
2021/07/01 08:17:56;;;;;;;5.00;3.30;;;;;;;21.22;100.00;96288.13;5022595;28;20065;-62
2021/07/01 08:20:25;;;;;;;3.35;2.97;;;;;;;;;;5013708;28;20068;-62
2021/07/01 08:22:54;;;;;;;3.40;3.08;;;;;;;20.84;100.00;96292.47;5021609;28;20078;-61
2021/07/01 08:25:23;;;;;;;5.57;3.35;;;;;;;20.76;100.00;96289.22;5024324;28;20082;-61
2021/07/01 08:27:53;;;;;;;4.20;3.20;;;;;;;21.32;100.00;96299.22;5024903;28;20468;-61
2021/07/01 08:30:23;;;;;;;4.95;3.97;;;;;;;21.84;100.00;96296.41;5031018;28;20068;-59
2021/07/01 08:32:56;;;;;;;4.28;3.58;;;;;;;22.28;100.00;96281.97;5041989;28;20061;-59
2021/07/01 08:35:26;;;;;;;3.92;3.30;;;;;;;21.06;100.00;96298.34;5039855;28;20501;-58
2021/07/01 08:37:58;;;;;;;3.92;3.35;;;;;;;21.78;100.00;96298.09;5039149;28;20076;-60
2021/07/01 08:40:32;;;;;;;7.18;2.90;;;;;;;21.55;100.00;96293.31;5024209;28;20475;-60
2021/07/01 08:43:02;;;;;;;2.70;2.50;;;;;;;20.57;100.00;96304.31;5032130;28;20077;-60
2021/07/01 08:45:43;;;;;;;2.33;2.13;;;;;;;19.83;100.00;96305.47;5037512;28;20092;-61
2021/07/01 08:48:21;;;;;;;3.63;2.58;;;;;;;20.43;100.00;96300.81;5038087;28;20065;-61
2021/07/01 08:50:58;;;;;;;3.05;2.75;;;;;;;20.13;100.00;96306.66;5042623;28;20095;-62
2021/07/01 08:53:42;;;;;;;4.03;2.92;;;;;;;20.24;100.00;96309.75;5040573;28;20511;-62
2021/07/01 08:56:11;;;;;;;3.78;3.20;;;;;;;21.07;100.00;96305.34;5035542;28;20077;-62
2021/07/01 08:58:45;;;;;;;3.30;3.00;;;;;;;21.32;100.00;96307.25;5031681;28;20084;-61
2021/07/01 09:01:32;;;;;;;3.30;3.00;;;;;;;20.70;100.00;96316.84;5024699;28;20053;-60
2021/07/01 09:04:03;;;;;;;2.65;2.45;;;;;;;19.60;100.00;96319.22;5039266;28;20061;-62
2021/07/01 09:06:36;;;;;;;4.78;3.08;;;;;;;20.78;100.00;96312.06;5038014;28;20060;-60
2021/07/01 09:09:07;;;;;;;3.38;2.90;;;;;;;20.93;100.00;96309.13;5028354;28;20061;-59
2021/07/01 09:11:37;;;;;;;3.60;2.47;;;;;;;20.74;100.00;96313.53;5029290;28;20459;-61
2021/07/01 09:14:07;;;;;;;3.00;2.70;;;;;;;21.24;100.00;96307.53;5038274;28;20068;-62
2021/07/01 09:16:36;;;;;;;3.90;2.92;;;;;;;20.67;100.00;96318.09;5042895;28;20589;-60
2021/07/01 09:19:07;;;;;;;2.65;2.40;;;;;;;20.78;100.00;96311.25;5025318;28;20259;-62
2021/07/01 09:21:35;;;;;;;2.75;2.55;;;;;;;22.75;100.00;96306.47;5033005;28;20079;-61
2021/07/01 09:24:06;;;;;;;4.28;2.72;;;;;;;21.97;100.00;96307.84;5026142;28;20073;-59
2021/07/01 09:26:34;;;;;;;2.72;2.38;;;;;;;22.28;100.00;96303.47;5022143;28;20065;-62
2021/07/01 09:29:04;;;;;;;3.33;2.67;;;;;;;22.07;100.00;96312.72;5028396;28;20075;-62
2021/07/01 09:31:33;;;;;;;3.22;2.53;;;;;;;22.59;100.00;96307.88;5044499;28;20085;-59
2021/07/01 09:34:01;;;;;;;3.00;2.70;;;;;;;23.51;100.00;96301.56;5038652;28;20077;-61
2021/07/01 09:36:31;;;;;;;3.10;2.70;;;;;;;23.11;100.00;96312.88;5040328;28;20072;-62
2021/07/01 09:39:02;;;;;;;3.67;3.38;;;;;;;23.45;100.00;96316.72;5043493;28;20439;-61
2021/07/01 09:41:30;;;;;;;;;;;;;;;22.97;100.00;96307.66;5040333;28;20065;-60
2021/07/01 09:44:00;;;;;;;3.97;3.00;;;;;;;23.20;100.00;96311.50;5041615;28;20697;-61
2021/07/01 09:46:29;;;;;;;;;;;;;;;22.94;100.00;96301.91;5016010;28;20085;-61
2021/07/01 09:49:00;;;;;;;2.53;2.33;;;;;;;22.02;100.00;96317.91;5020553;28;19949;-60
2021/07/01 09:51:30;;;;;;;2.92;2.63;;;;;;;22.75;100.00;96309.16;5029464;28;20446;-61
2021/07/01 09:54:02;;;;;;;2.70;2.50;;;;;;;23.15;100.00;96304.09;5043170;28;20060;-61
2021/07/01 09:56:37;;;;;;;3.85;2.22;;;;;;;22.95;100.00;96307.06;5035835;28;20065;-62
2021/07/01 09:59:12;;;;;;;2.10;1.65;;;;;;;21.54;100.00;96300.56;5026255;28;20075;-61
2021/07/01 10:01:41;;;;;;;2.63;1.95;;;;;;;22.56;100.00;96304.81;5030321;28;20080;-61
2021/07/01 10:04:10;;;;;;;2.30;2.10;;;;;;;23.06;100.00;96300.09;5023121;28;20088;-62
2021/07/01 10:06:40;;;;;;;2.75;2.17;;;;;;;22.48;100.00;96308.63;5027523;28;20077;-63
2021/07/01 10:09:09;;;;;;;3.45;2.28;;;;;;;22.74;100.00;96304.81;5030222;28;20558;-62
2021/07/01 10:11:40;;;;;;;2.60;2.10;;;;;;;21.72;100.00;96307.03;5037256;28;20060;-62
2021/07/01 10:14:09;;;;;;;2.97;2.20;;;;;;;22.73;100.00;96297.78;5034918;28;20490;-62
2021/07/01 10:16:38;;;;;;;3.13;2.33;;;;;;;21.78;100.00;96293.56;5034711;28;20471;-62
2021/07/01 10:19:08;;;;;;;2.83;2.40;;;;;;;22.87;100.00;96307.34;5036289;28;20076;-62
2021/07/01 10:21:38;;;;;;;3.00;2.50;;;;;;;22.69;100.00;96300.09;5024572;28;20187;-59
2021/07/01 10:24:13;;;;;;;2.50;2.10;;;;;;;22.22;100.00;96304.34;5025662;28;20064;-63
2021/07/01 10:26:44;;;;;;;3.30;2.20;;;;;;;21.88;100.00;96306.47;5038272;28;20915;-61
2021/07/01 10:29:13;;;;;;;2.80;2.55;;;;;;;22.54;100.00;96291.63;5035851;28;20061;-62
2021/07/01 10:31:52;;;;;;;2.47;2.10;;;;;;;23.52;100.00;96290.53;5016239;28;20081;-60
2021/07/01 10:34:20;;;;;;;4.13;2.40;;;;;;;23.22;100.00;96293.25;5036776;28;20084;-63
2021/07/01 10:36:49;;;;;;;2.35;2.10;;;;;;;23.12;100.00;96293.78;5022970;28;20069;-63
2021/07/01 10:39:28;;;;;;;3.47;2.40;;;;;;;22.21;100.00;96294.66;5032804;28;20071;-60
2021/07/01 10:42:01;;;;;;;4.20;2.30;;;;;;;22.63;100.00;96292.94;5037202;28;20076;-61
2021/07/01 10:44:29;;;;;;;3.42;2.10;;;;;;;23.69;100.00;96294.22;5036857;28;20076;-63
2021/07/01 10:46:58;;;;;;;2.33;2.13;;;;;;;23.09;100.00;96298.81;5039807;28;20283;-63
2021/07/01 10:49:32;;;;;;;2.60;2.40;;;;;;;24.04;100.00;96298.84;5022938;28;20083;-62
2021/07/01 10:52:02;;;;;;;2.28;2.08;;;;;;;22.56;100.00;96304.81;5020678;28;20080;-62
2021/07/01 10:54:32;;;;;;;2.50;2.30;;;;;;;21.87;100.00;96298.63;5022627;28;20061;-62
2021/07/01 10:57:07;;;;;;;3.75;2.50;;;;;;;23.42;100.00;96295.66;5019108;28;20435;-61
2021/07/01 10:59:48;;;;;;;3.20;2.85;;;;;;;23.14;100.00;96305.16;5020774;28;20080;-60
2021/07/01 11:02:24;;;;;;;3.88;2.70;;;;;;;25.03;100.00;96301.53;5035606;28;20076;-62
2021/07/01 11:04:55;;;;;;;3.05;2.60;;;;;;;23.75;100.00;96305.97;5038715;28;20073;-61
2021/07/01 11:07:24;;;;;;;2.88;2.47;;;;;;;23.66;100.00;96293.84;5039372;28;20080;-63
2021/07/01 11:09:57;;;;;;;3.33;2.40;;;;;;;24.91;100.00;96294.53;5041615;28;20565;-62
2021/07/01 11:12:27;;;;;;;4.28;2.78;;;;;;;24.57;100.00;96292.53;5037681;28;20068;-62
2021/07/01 11:14:57;;;;;;;2.90;2.60;;;;;;;25.56;100.00;96286.06;5038271;28;20049;-63
2021/07/01 11:17:32;;;;;;;4.13;2.50;;;;;;;24.83;100.00;96284.94;5029301;28;20061;-62
2021/07/01 11:20:16;;;;;;;4.72;2.70;;;;;;;24.76;100.00;96276.19;5019139;28;20467;-63
2021/07/01 11:22:47;;;;;;;2.38;2.17;;;;;;;24.84;100.00;96282.03;5034266;28;20504;-62
2021/07/01 11:25:25;;;;;;;3.10;2.20;;;;;;;23.85;100.00;96284.66;5037419;28;20112;-63
2021/07/01 11:27:55;;;;;;;2.38;2.15;;;;;;;23.64;100.00;96277.09;5034764;28;20057;-63
2021/07/01 11:30:25;;;;;;;3.03;2.45;;;;;;;24.52;100.00;96281.63;5033693;28;20080;-63
2021/07/01 11:33:13;;;;;;;2.28;2.08;;;;;;;25.53;91.89;96278.44;5033027;28;20061;-63
2021/07/01 11:35:41;;;;;;;2.33;2.05;;;;;;;25.16;96.70;96275.38;5035959;28;20061;-62
2021/07/01 11:38:26;;;;;;;2.13;1.92;;;;;;;24.52;83.99;96270.03;5034836;28;20077;-63
2021/07/01 11:40:59;;;;;;;2.50;2.08;;;;;;;24.87;78.55;96275.31;5036615;28;20085;-62